sensor_id;sensor_type;location;lat;lon;timestamp;temperature;humidity
9219;DHT22;4644;48.858;9.184;2023-07-24T00:00:15;18.70;99.90
9219;DHT22;4644;48.858;9.184;2023-07-24T00:02:42;18.50;99.90
9219;DHT22;4644;48.858;9.184;2023-07-24T00:05:09;18.20;99.90
9219;DHT22;4644;48.858;9.184;2023-07-24T00:07:38;17.90;99.90
9219;DHT22;4644;48.858;9.184;2023-07-24T00:10:06;17.80;99.90
9219;DHT22;4644;48.858;9.184;2023-07-24T00:12:33;17.80;99.90
9219;DHT22;4644;48.858;9.184;2023-07-24T00:15:00;17.60;99.90
9219;DHT22;4644;48.858;9.184;2023-07-24T00:17:27;17.60;99.90
9219;DHT22;4644;48.858;9.184;2023-07-24T00:19:54;17.40;99.90
9219;DHT22;4644;48.858;9.184;2023-07-24T00:22:20;17.40;99.90
9219;DHT22;4644;48.858;9.184;2023-07-24T00:24:49;17.40;99.90
9219;DHT22;4644;48.858;9.184;2023-07-24T00:27:16;17.30;99.90
9219;DHT22;4644;48.858;9.184;2023-07-24T00:29:43;17.30;99.90
9219;DHT22;4644;48.858;9.184;2023-07-24T00:32:10;17.30;99.90
9219;DHT22;4644;48.858;9.184;2023-07-24T00:34:36;17.30;99.90
9219;DHT22;4644;48.858;9.184;2023-07-24T00:37:04;17.30;99.90
9219;DHT22;4644;48.858;9.184;2023-07-24T00:39:34;17.40;99.90
9219;DHT22;4644;48.858;9.184;2023-07-24T00:42:03;17.40;99.90
9219;DHT22;4644;48.858;9.184;2023-07-24T00:44:30;17.50;99.90
9219;DHT22;4644;48.858;9.184;2023-07-24T00:46:57;17.50;99.90
9219;DHT22;4644;48.858;9.184;2023-07-24T00:49:24;17.50;99.90
9219;DHT22;4644;48.858;9.184;2023-07-24T00:51:52;17.50;99.90
9219;DHT22;4644;48.858;9.184;2023-07-24T00:54:20;17.50;99.90
9219;DHT22;4644;48.858;9.184;2023-07-24T00:56:48;17.40;99.90
9219;DHT22;4644;48.858;9.184;2023-07-24T00:59:17;17.40;99.90
9219;DHT22;4644;48.858;9.184;2023-07-24T01:01:44;17.40;99.90
9219;DHT22;4644;48.858;9.184;2023-07-24T01:04:11;17.30;99.90
9219;DHT22;4644;48.858;9.184;2023-07-24T01:06:38;17.30;99.90
9219;DHT22;4644;48.858;9.184;2023-07-24T01:09:05;17.40;99.90
9219;DHT22;4644;48.858;9.184;2023-07-24T01:11:37;17.40;99.90
9219;DHT22;4644;48.858;9.184;2023-07-24T01:14:09;17.30;99.90
9219;DHT22;4644;48.858;9.184;2023-07-24T01:16:42;17.40;99.90
9219;DHT22;4644;48.858;9.184;2023-07-24T01:19:13;17.50;99.90
9219;DHT22;4644;48.858;9.184;2023-07-24T01:21:52;17.40;99.90
9219;DHT22;4644;48.858;9.184;2023-07-24T01:24:30;17.40;99.90
9219;DHT22;4644;48.858;9.184;2023-07-24T01:27:01;17.40;99.90
9219;DHT22;4644;48.858;9.184;2023-07-24T01:29:28;17.40;99.90
9219;DHT22;4644;48.858;9.184;2023-07-24T01:31:55;17.40;99.90
9219;DHT22;4644;48.858;9.184;2023-07-24T01:34:22;17.50;99.90
9219;DHT22;4644;48.858;9.184;2023-07-24T01:36:50;17.50;99.90
9219;DHT22;4644;48.858;9.184;2023-07-24T01:39:18;17.50;99.90
9219;DHT22;4644;48.858;9.184;2023-07-24T01:41:47;17.50;99.90
9219;DHT22;4644;48.858;9.184;2023-07-24T01:44:15;17.50;99.90
9219;DHT22;4644;48.858;9.184;2023-07-24T01:46:44;17.50;99.90
9219;DHT22;4644;48.858;9.184;2023-07-24T01:49:11;17.40;99.90
9219;DHT22;4644;48.858;9.184;2023-07-24T01:51:38;17.30;99.90
9219;DHT22;4644;48.858;9.184;2023-07-24T01:54:05;17.30;99.90
9219;DHT22;4644;48.858;9.184;2023-07-24T01:56:35;17.30;99.90
9219;DHT22;4644;48.858;9.184;2023-07-24T01:59:03;17.30;99.90
9219;DHT22;4644;48.858;9.184;2023-07-24T02:01:31;17.30;99.90
9219;DHT22;4644;48.858;9.184;2023-07-24T02:03:58;17.30;99.90
9219;DHT22;4644;48.858;9.184;2023-07-24T02:06:25;17.20;99.90
9219;DHT22;4644;48.858;9.184;2023-07-24T02:08:52;17.30;99.90
9219;DHT22;4644;48.858;9.184;2023-07-24T02:11:19;17.30;99.90
9219;DHT22;4644;48.858;9.184;2023-07-24T02:13:46;17.30;99.90
9219;DHT22;4644;48.858;9.184;2023-07-24T02:16:14;17.30;99.90
9219;DHT22;4644;48.858;9.184;2023-07-24T02:18:42;17.40;99.90
9219;DHT22;4644;48.858;9.184;2023-07-24T02:21:09;17.50;99.90
9219;DHT22;4644;48.858;9.184;2023-07-24T02:23:37;17.60;99.90
9219;DHT22;4644;48.858;9.184;2023-07-24T02:26:03;17.60;99.90
9219;DHT22;4644;48.858;9.184;2023-07-24T02:28:30;17.60;99.90
9219;DHT22;4644;48.858;9.184;2023-07-24T02:30:57;17.70;99.90
9219;DHT22;4644;48.858;9.184;2023-07-24T02:33:25;17.60;99.90
9219;DHT22;4644;48.858;9.184;2023-07-24T02:35:54;17.70;99.90
9219;DHT22;4644;48.858;9.184;2023-07-24T02:38:21;17.70;99.90
9219;DHT22;4644;48.858;9.184;2023-07-24T02:40:48;17.70;99.90
9219;DHT22;4644;48.858;9.184;2023-07-24T02:43:15;17.70;99.90
9219;DHT22;4644;48.858;9.184;2023-07-24T02:45:42;17.70;99.90
9219;DHT22;4644;48.858;9.184;2023-07-24T02:48:09;17.70;99.90
9219;DHT22;4644;48.858;9.184;2023-07-24T02:50:36;17.80;99.90
9219;DHT22;4644;48.858;9.184;2023-07-24T02:53:04;17.80;99.90
9219;DHT22;4644;48.858;9.184;2023-07-24T02:55:31;17.90;99.90
9219;DHT22;4644;48.858;9.184;2023-07-24T02:57:58;17.80;99.90
9219;DHT22;4644;48.858;9.184;2023-07-24T03:00:25;17.70;99.90
9219;DHT22;4644;48.858;9.184;2023-07-24T03:02:52;17.70;99.90
9219;DHT22;4644;48.858;9.184;2023-07-24T03:05:19;17.70;99.90
9219;DHT22;4644;48.858;9.184;2023-07-24T03:07:46;17.80;99.90
9219;DHT22;4644;48.858;9.184;2023-07-24T03:10:14;17.70;99.90
9219;DHT22;4644;48.858;9.184;2023-07-24T03:12:41;17.70;99.90
9219;DHT22;4644;48.858;9.184;2023-07-24T03:15:09;17.60;99.90
9219;DHT22;4644;48.858;9.184;2023-07-24T03:17:36;17.60;99.90
9219;DHT22;4644;48.858;9.184;2023-07-24T03:20:12;17.60;99.90
9219;DHT22;4644;48.858;9.184;2023-07-24T03:22:40;17.50;99.90
9219;DHT22;4644;48.858;9.184;2023-07-24T03:25:08;17.50;99.90
9219;DHT22;4644;48.858;9.184;2023-07-24T03:27:36;17.50;99.90
9219;DHT22;4644;48.858;9.184;2023-07-24T03:30:04;17.40;99.90
9219;DHT22;4644;48.858;9.184;2023-07-24T03:32:31;17.40;99.90
9219;DHT22;4644;48.858;9.184;2023-07-24T03:34:58;17.30;99.90
9219;DHT22;4644;48.858;9.184;2023-07-24T03:37:25;17.20;99.90
9219;DHT22;4644;48.858;9.184;2023-07-24T03:39:52;17.20;99.90
9219;DHT22;4644;48.858;9.184;2023-07-24T03:42:26;17.10;99.90
9219;DHT22;4644;48.858;9.184;2023-07-24T03:44:55;17.00;99.90
9219;DHT22;4644;48.858;9.184;2023-07-24T03:47:22;17.00;99.90
9219;DHT22;4644;48.858;9.184;2023-07-24T03:49:49;17.00;99.90
9219;DHT22;4644;48.858;9.184;2023-07-24T03:52:16;17.00;99.90
9219;DHT22;4644;48.858;9.184;2023-07-24T03:54:44;17.00;99.90
9219;DHT22;4644;48.858;9.184;2023-07-24T03:57:11;16.90;99.90
9219;DHT22;4644;48.858;9.184;2023-07-24T03:59:38;17.00;99.90
9219;DHT22;4644;48.858;9.184;2023-07-24T04:02:06;17.10;99.90
9219;DHT22;4644;48.858;9.184;2023-07-24T04:04:33;17.20;99.90
9219;DHT22;4644;48.858;9.184;2023-07-24T04:07:00;17.30;99.90
9219;DHT22;4644;48.858;9.184;2023-07-24T04:09:28;17.30;99.90
9219;DHT22;4644;48.858;9.184;2023-07-24T04:11:55;17.30;99.90
9219;DHT22;4644;48.858;9.184;2023-07-24T04:14:22;17.20;99.90
9219;DHT22;4644;48.858;9.184;2023-07-24T04:16:49;17.20;99.90
9219;DHT22;4644;48.858;9.184;2023-07-24T04:19:17;17.30;99.90
9219;DHT22;4644;48.858;9.184;2023-07-24T04:21:44;17.20;99.90
9219;DHT22;4644;48.858;9.184;2023-07-24T04:24:11;17.20;99.90
9219;DHT22;4644;48.858;9.184;2023-07-24T04:26:38;17.20;99.90
9219;DHT22;4644;48.858;9.184;2023-07-24T04:29:06;17.30;99.90
9219;DHT22;4644;48.858;9.184;2023-07-24T04:31:33;17.50;99.90
9219;DHT22;4644;48.858;9.184;2023-07-24T04:34:00;17.70;99.90
9219;DHT22;4644;48.858;9.184;2023-07-24T04:36:28;17.70;99.90
9219;DHT22;4644;48.858;9.184;2023-07-24T04:38:55;17.80;99.90
9219;DHT22;4644;48.858;9.184;2023-07-24T04:41:22;17.90;99.90
9219;DHT22;4644;48.858;9.184;2023-07-24T04:43:49;17.90;99.90
9219;DHT22;4644;48.858;9.184;2023-07-24T04:46:16;17.90;99.90
9219;DHT22;4644;48.858;9.184;2023-07-24T04:48:44;18.00;99.90
9219;DHT22;4644;48.858;9.184;2023-07-24T04:51:11;18.10;99.90
9219;DHT22;4644;48.858;9.184;2023-07-24T04:53:40;18.10;99.90
9219;DHT22;4644;48.858;9.184;2023-07-24T04:56:07;18.00;99.90
9219;DHT22;4644;48.858;9.184;2023-07-24T04:58:34;18.10;99.90
9219;DHT22;4644;48.858;9.184;2023-07-24T05:01:02;18.10;99.90
9219;DHT22;4644;48.858;9.184;2023-07-24T05:03:30;18.10;99.90
9219;DHT22;4644;48.858;9.184;2023-07-24T05:05:57;18.10;99.90
9219;DHT22;4644;48.858;9.184;2023-07-24T05:08:24;18.10;99.90
9219;DHT22;4644;48.858;9.184;2023-07-24T05:10:56;18.20;99.90
9219;DHT22;4644;48.858;9.184;2023-07-24T05:13:24;18.20;99.90
9219;DHT22;4644;48.858;9.184;2023-07-24T05:15:51;18.20;99.90
9219;DHT22;4644;48.858;9.184;2023-07-24T05:18:18;18.30;99.90
9219;DHT22;4644;48.858;9.184;2023-07-24T05:20:45;18.30;99.90
9219;DHT22;4644;48.858;9.184;2023-07-24T05:23:13;18.30;99.90
9219;DHT22;4644;48.858;9.184;2023-07-24T05:25:40;18.30;99.90
9219;DHT22;4644;48.858;9.184;2023-07-24T05:28:08;18.40;99.90
9219;DHT22;4644;48.858;9.184;2023-07-24T05:30:36;18.50;99.90
9219;DHT22;4644;48.858;9.184;2023-07-24T05:33:03;18.50;99.90
9219;DHT22;4644;48.858;9.184;2023-07-24T05:35:30;18.60;99.90
9219;DHT22;4644;48.858;9.184;2023-07-24T05:37:57;18.60;99.90
9219;DHT22;4644;48.858;9.184;2023-07-24T05:40:24;18.60;99.90
9219;DHT22;4644;48.858;9.184;2023-07-24T05:42:51;18.60;99.90
9219;DHT22;4644;48.858;9.184;2023-07-24T05:45:19;18.60;99.90
9219;DHT22;4644;48.858;9.184;2023-07-24T05:47:46;18.70;99.90
9219;DHT22;4644;48.858;9.184;2023-07-24T05:50:13;18.70;99.90
9219;DHT22;4644;48.858;9.184;2023-07-24T05:52:40;18.60;99.90
9219;DHT22;4644;48.858;9.184;2023-07-24T05:55:08;18.70;99.90
9219;DHT22;4644;48.858;9.184;2023-07-24T05:57:35;18.70;99.90
9219;DHT22;4644;48.858;9.184;2023-07-24T06:00:02;18.60;99.90
9219;DHT22;4644;48.858;9.184;2023-07-24T06:02:30;18.70;99.90
9219;DHT22;4644;48.858;9.184;2023-07-24T06:04:58;18.80;99.90
9219;DHT22;4644;48.858;9.184;2023-07-24T06:07:25;18.80;99.90
9219;DHT22;4644;48.858;9.184;2023-07-24T06:09:52;18.80;99.90
9219;DHT22;4644;48.858;9.184;2023-07-24T06:12:19;18.80;99.90
9219;DHT22;4644;48.858;9.184;2023-07-24T06:14:46;18.80;99.90
9219;DHT22;4644;48.858;9.184;2023-07-24T06:17:13;18.80;99.90
9219;DHT22;4644;48.858;9.184;2023-07-24T06:19:42;18.90;99.90
9219;DHT22;4644;48.858;9.184;2023-07-24T06:22:09;18.90;99.90
9219;DHT22;4644;48.858;9.184;2023-07-24T06:24:36;19.10;99.90
9219;DHT22;4644;48.858;9.184;2023-07-24T06:27:04;19.10;99.90
9219;DHT22;4644;48.858;9.184;2023-07-24T06:29:32;19.10;99.90
9219;DHT22;4644;48.858;9.184;2023-07-24T06:31:59;19.10;99.90
9219;DHT22;4644;48.858;9.184;2023-07-24T06:34:26;19.20;99.90
9219;DHT22;4644;48.858;9.184;2023-07-24T06:36:54;19.30;99.90
9219;DHT22;4644;48.858;9.184;2023-07-24T06:39:21;19.30;99.90
9219;DHT22;4644;48.858;9.184;2023-07-24T06:41:50;19.30;99.90
9219;DHT22;4644;48.858;9.184;2023-07-24T06:44:18;19.30;99.90
9219;DHT22;4644;48.858;9.184;2023-07-24T06:46:46;19.30;99.90
9219;DHT22;4644;48.858;9.184;2023-07-24T06:49:12;19.40;99.90
9219;DHT22;4644;48.858;9.184;2023-07-24T06:51:40;19.40;99.90
9219;DHT22;4644;48.858;9.184;2023-07-24T06:54:08;19.50;99.90
9219;DHT22;4644;48.858;9.184;2023-07-24T06:56:35;19.50;99.90
9219;DHT22;4644;48.858;9.184;2023-07-24T06:59:02;19.60;99.90
9219;DHT22;4644;48.858;9.184;2023-07-24T07:01:29;19.60;99.90
9219;DHT22;4644;48.858;9.184;2023-07-24T07:03:58;19.70;99.90
9219;DHT22;4644;48.858;9.184;2023-07-24T07:06:34;19.70;99.90
9219;DHT22;4644;48.858;9.184;2023-07-24T07:09:03;19.80;99.90
9219;DHT22;4644;48.858;9.184;2023-07-24T07:11:37;19.90;99.90
9219;DHT22;4644;48.858;9.184;2023-07-24T07:14:14;19.90;99.90
9219;DHT22;4644;48.858;9.184;2023-07-24T07:16:47;20.00;99.90
9219;DHT22;4644;48.858;9.184;2023-07-24T07:19:18;20.20;99.90
9219;DHT22;4644;48.858;9.184;2023-07-24T07:21:49;20.20;99.90
9219;DHT22;4644;48.858;9.184;2023-07-24T07:24:22;20.30;99.90
9219;DHT22;4644;48.858;9.184;2023-07-24T07:26:50;20.40;99.90
9219;DHT22;4644;48.858;9.184;2023-07-24T07:29:17;20.30;99.90
9219;DHT22;4644;48.858;9.184;2023-07-24T07:31:44;20.20;99.90
9219;DHT22;4644;48.858;9.184;2023-07-24T07:34:11;20.10;99.90
9219;DHT22;4644;48.858;9.184;2023-07-24T07:36:40;20.10;99.90
9219;DHT22;4644;48.858;9.184;2023-07-24T07:39:07;20.20;99.90
9219;DHT22;4644;48.858;9.184;2023-07-24T07:41:35;20.20;99.90
9219;DHT22;4644;48.858;9.184;2023-07-24T07:44:03;20.30;99.90
9219;DHT22;4644;48.858;9.184;2023-07-24T07:46:30;20.30;99.90
9219;DHT22;4644;48.858;9.184;2023-07-24T07:48:57;20.30;99.90
9219;DHT22;4644;48.858;9.184;2023-07-24T07:51:24;20.30;99.90
9219;DHT22;4644;48.858;9.184;2023-07-24T07:53:52;20.30;99.90
9219;DHT22;4644;48.858;9.184;2023-07-24T07:56:19;20.40;99.90
9219;DHT22;4644;48.858;9.184;2023-07-24T07:58:46;20.40;99.90
9219;DHT22;4644;48.858;9.184;2023-07-24T08:01:16;20.40;99.90
9219;DHT22;4644;48.858;9.184;2023-07-24T08:03:43;20.40;99.90
9219;DHT22;4644;48.858;9.184;2023-07-24T08:06:10;20.30;99.90
9219;DHT22;4644;48.858;9.184;2023-07-24T08:08:37;20.20;99.90
9219;DHT22;4644;48.858;9.184;2023-07-24T08:11:05;20.00;99.90
9219;DHT22;4644;48.858;9.184;2023-07-24T08:13:32;19.90;99.90
9219;DHT22;4644;48.858;9.184;2023-07-24T08:16:00;19.80;99.90
9219;DHT22;4644;48.858;9.184;2023-07-24T08:18:30;19.80;99.90
9219;DHT22;4644;48.858;9.184;2023-07-24T08:20:57;19.70;99.90
9219;DHT22;4644;48.858;9.184;2023-07-24T08:23:24;19.70;99.90
9219;DHT22;4644;48.858;9.184;2023-07-24T08:25:51;19.60;99.90
9219;DHT22;4644;48.858;9.184;2023-07-24T08:28:19;19.50;99.90
9219;DHT22;4644;48.858;9.184;2023-07-24T08:30:46;19.40;99.90
9219;DHT22;4644;48.858;9.184;2023-07-24T08:33:13;19.10;99.90
9219;DHT22;4644;48.858;9.184;2023-07-24T08:35:41;18.80;99.90
9219;DHT22;4644;48.858;9.184;2023-07-24T08:38:08;18.60;99.90
9219;DHT22;4644;48.858;9.184;2023-07-24T08:40:35;18.30;99.90
9219;DHT22;4644;48.858;9.184;2023-07-24T08:43:03;18.30;99.90
9219;DHT22;4644;48.858;9.184;2023-07-24T08:45:30;18.20;99.90
9219;DHT22;4644;48.858;9.184;2023-07-24T08:47:59;18.30;99.90
9219;DHT22;4644;48.858;9.184;2023-07-24T08:50:26;18.40;99.90
9219;DHT22;4644;48.858;9.184;2023-07-24T08:52:56;18.40;99.90
9219;DHT22;4644;48.858;9.184;2023-07-24T08:55:24;18.50;99.90
9219;DHT22;4644;48.858;9.184;2023-07-24T08:57:51;18.50;99.90
9219;DHT22;4644;48.858;9.184;2023-07-24T09:00:18;18.70;99.90
9219;DHT22;4644;48.858;9.184;2023-07-24T09:02:45;18.80;99.90
9219;DHT22;4644;48.858;9.184;2023-07-24T09:05:12;18.90;99.90
9219;DHT22;4644;48.858;9.184;2023-07-24T09:07:41;18.90;99.90
9219;DHT22;4644;48.858;9.184;2023-07-24T09:10:10;19.10;99.90
9219;DHT22;4644;48.858;9.184;2023-07-24T09:12:37;19.10;99.90
9219;DHT22;4644;48.858;9.184;2023-07-24T09:15:06;19.20;99.90
9219;DHT22;4644;48.858;9.184;2023-07-24T09:17:33;19.30;99.90
9219;DHT22;4644;48.858;9.184;2023-07-24T09:20:00;19.40;99.90
9219;DHT22;4644;48.858;9.184;2023-07-24T09:22:29;19.40;99.90
9219;DHT22;4644;48.858;9.184;2023-07-24T09:24:57;19.60;99.90
9219;DHT22;4644;48.858;9.184;2023-07-24T09:27:28;19.80;99.90
9219;DHT22;4644;48.858;9.184;2023-07-24T09:29:55;19.90;99.90
9219;DHT22;4644;48.858;9.184;2023-07-24T09:32:23;19.80;99.90
9219;DHT22;4644;48.858;9.184;2023-07-24T09:34:51;19.70;99.90
9219;DHT22;4644;48.858;9.184;2023-07-24T09:37:26;19.70;99.90
9219;DHT22;4644;48.858;9.184;2023-07-24T09:39:53;19.70;99.90
9219;DHT22;4644;48.858;9.184;2023-07-24T09:42:29;19.80;99.90
9219;DHT22;4644;48.858;9.184;2023-07-24T09:44:56;19.90;99.90
9219;DHT22;4644;48.858;9.184;2023-07-24T09:47:23;19.80;99.90
9219;DHT22;4644;48.858;9.184;2023-07-24T09:49:51;19.70;99.90
9219;DHT22;4644;48.858;9.184;2023-07-24T09:52:20;19.60;99.90
9219;DHT22;4644;48.858;9.184;2023-07-24T09:54:55;19.70;99.90
9219;DHT22;4644;48.858;9.184;2023-07-24T09:57:23;19.90;99.90
9219;DHT22;4644;48.858;9.184;2023-07-24T09:59:54;19.80;99.90
9219;DHT22;4644;48.858;9.184;2023-07-24T10:02:23;19.90;99.90
9219;DHT22;4644;48.858;9.184;2023-07-24T10:04:50;20.00;99.90
9219;DHT22;4644;48.858;9.184;2023-07-24T10:07:17;19.80;99.90
9219;DHT22;4644;48.858;9.184;2023-07-24T10:09:47;19.80;99.90
9219;DHT22;4644;48.858;9.184;2023-07-24T10:12:15;19.60;99.90
9219;DHT22;4644;48.858;9.184;2023-07-24T10:14:43;19.50;99.90
9219;DHT22;4644;48.858;9.184;2023-07-24T10:17:12;19.40;99.90
9219;DHT22;4644;48.858;9.184;2023-07-24T10:19:40;19.40;99.90
9219;DHT22;4644;48.858;9.184;2023-07-24T10:22:09;19.50;99.90
9219;DHT22;4644;48.858;9.184;2023-07-24T10:24:36;19.40;99.90
9219;DHT22;4644;48.858;9.184;2023-07-24T10:27:03;19.50;99.90
9219;DHT22;4644;48.858;9.184;2023-07-24T10:29:34;19.40;99.90
9219;DHT22;4644;48.858;9.184;2023-07-24T10:32:03;19.50;99.90
9219;DHT22;4644;48.858;9.184;2023-07-24T10:34:38;19.50;99.90
9219;DHT22;4644;48.858;9.184;2023-07-24T10:37:07;19.60;99.90
9219;DHT22;4644;48.858;9.184;2023-07-24T10:39:39;19.70;99.90
9219;DHT22;4644;48.858;9.184;2023-07-24T10:42:08;19.60;99.90
9219;DHT22;4644;48.858;9.184;2023-07-24T10:44:36;19.60;99.90
9219;DHT22;4644;48.858;9.184;2023-07-24T10:47:03;19.50;99.90
9219;DHT22;4644;48.858;9.184;2023-07-24T10:49:30;19.40;99.90
9219;DHT22;4644;48.858;9.184;2023-07-24T10:51:59;19.40;99.90
9219;DHT22;4644;48.858;9.184;2023-07-24T10:54:26;19.30;99.90
9219;DHT22;4644;48.858;9.184;2023-07-24T10:56:58;19.30;99.90
9219;DHT22;4644;48.858;9.184;2023-07-24T10:59:36;19.10;99.90
9219;DHT22;4644;48.858;9.184;2023-07-24T11:02:04;18.90;99.90
9219;DHT22;4644;48.858;9.184;2023-07-24T11:04:32;18.80;99.90
9219;DHT22;4644;48.858;9.184;2023-07-24T11:07:03;18.70;99.90
9219;DHT22;4644;48.858;9.184;2023-07-24T11:09:36;18.60;99.90
9219;DHT22;4644;48.858;9.184;2023-07-24T11:12:13;18.60;99.90
9219;DHT22;4644;48.858;9.184;2023-07-24T11:14:50;18.60;99.90
9219;DHT22;4644;48.858;9.184;2023-07-24T11:17:19;18.50;99.90
9219;DHT22;4644;48.858;9.184;2023-07-24T11:19:46;18.50;99.90
9219;DHT22;4644;48.858;9.184;2023-07-24T11:22:15;18.50;99.90
9219;DHT22;4644;48.858;9.184;2023-07-24T11:24:43;18.50;99.90
9219;DHT22;4644;48.858;9.184;2023-07-24T11:27:12;18.40;99.90
9219;DHT22;4644;48.858;9.184;2023-07-24T11:29:40;18.40;99.90
9219;DHT22;4644;48.858;9.184;2023-07-24T11:32:07;18.40;99.90
9219;DHT22;4644;48.858;9.184;2023-07-24T11:34:35;18.40;99.90
9219;DHT22;4644;48.858;9.184;2023-07-24T11:37:03;18.40;99.90
9219;DHT22;4644;48.858;9.184;2023-07-24T11:39:31;18.40;99.90
9219;DHT22;4644;48.858;9.184;2023-07-24T11:42:00;18.50;99.90
9219;DHT22;4644;48.858;9.184;2023-07-24T11:44:28;18.60;99.90
9219;DHT22;4644;48.858;9.184;2023-07-24T11:47:02;18.80;99.90
9219;DHT22;4644;48.858;9.184;2023-07-24T11:49:30;19.30;99.90
9219;DHT22;4644;48.858;9.184;2023-07-24T11:52:01;19.60;99.90
9219;DHT22;4644;48.858;9.184;2023-07-24T11:54:28;19.60;99.90
9219;DHT22;4644;48.858;9.184;2023-07-24T11:56:56;19.60;99.90
9219;DHT22;4644;48.858;9.184;2023-07-24T11:59:24;19.60;99.90
9219;DHT22;4644;48.858;9.184;2023-07-24T12:01:52;19.30;99.90
9219;DHT22;4644;48.858;9.184;2023-07-24T12:04:19;19.10;99.90
9219;DHT22;4644;48.858;9.184;2023-07-24T12:06:46;18.90;99.90
9219;DHT22;4644;48.858;9.184;2023-07-24T12:09:13;18.80;99.90
9219;DHT22;4644;48.858;9.184;2023-07-24T12:11:41;18.80;99.90
9219;DHT22;4644;48.858;9.184;2023-07-24T12:14:10;18.80;99.90
9219;DHT22;4644;48.858;9.184;2023-07-24T12:16:37;18.70;99.90
9219;DHT22;4644;48.858;9.184;2023-07-24T12:19:05;18.70;99.90
9219;DHT22;4644;48.858;9.184;2023-07-24T12:21:32;18.60;99.90
9219;DHT22;4644;48.858;9.184;2023-07-24T12:23:59;18.60;99.90
9219;DHT22;4644;48.858;9.184;2023-07-24T12:26:26;18.60;99.90
9219;DHT22;4644;48.858;9.184;2023-07-24T12:28:53;18.50;99.90
9219;DHT22;4644;48.858;9.184;2023-07-24T12:31:22;18.60;99.90
9219;DHT22;4644;48.858;9.184;2023-07-24T12:33:49;18.60;99.90
9219;DHT22;4644;48.858;9.184;2023-07-24T12:36:16;18.60;99.90
9219;DHT22;4644;48.858;9.184;2023-07-24T12:38:43;18.60;99.90
9219;DHT22;4644;48.858;9.184;2023-07-24T12:41:11;18.50;99.90
9219;DHT22;4644;48.858;9.184;2023-07-24T12:43:38;18.50;99.90
9219;DHT22;4644;48.858;9.184;2023-07-24T12:46:04;18.50;99.90
9219;DHT22;4644;48.858;9.184;2023-07-24T12:48:33;18.50;99.90
9219;DHT22;4644;48.858;9.184;2023-07-24T12:51:01;18.40;99.90
9219;DHT22;4644;48.858;9.184;2023-07-24T12:53:28;18.40;99.90
9219;DHT22;4644;48.858;9.184;2023-07-24T12:55:55;18.50;99.90
9219;DHT22;4644;48.858;9.184;2023-07-24T12:58:22;18.60;99.90
9219;DHT22;4644;48.858;9.184;2023-07-24T13:00:49;18.70;99.90
9219;DHT22;4644;48.858;9.184;2023-07-24T13:03:16;18.80;99.90
9219;DHT22;4644;48.858;9.184;2023-07-24T13:05:44;19.00;99.90
9219;DHT22;4644;48.858;9.184;2023-07-24T13:08:11;19.00;99.90
9219;DHT22;4644;48.858;9.184;2023-07-24T13:10:38;19.10;99.90
9219;DHT22;4644;48.858;9.184;2023-07-24T13:13:05;19.20;99.90
9219;DHT22;4644;48.858;9.184;2023-07-24T13:15:32;19.30;99.90
9219;DHT22;4644;48.858;9.184;2023-07-24T13:17:59;19.40;99.90
9219;DHT22;4644;48.858;9.184;2023-07-24T13:20:26;19.40;99.90
9219;DHT22;4644;48.858;9.184;2023-07-24T13:22:54;19.50;99.90
9219;DHT22;4644;48.858;9.184;2023-07-24T13:25:21;19.50;99.90
9219;DHT22;4644;48.858;9.184;2023-07-24T13:27:49;19.60;99.90
9219;DHT22;4644;48.858;9.184;2023-07-24T13:30:16;19.60;99.90
9219;DHT22;4644;48.858;9.184;2023-07-24T13:32:43;19.70;99.90
9219;DHT22;4644;48.858;9.184;2023-07-24T13:35:10;19.70;99.90
9219;DHT22;4644;48.858;9.184;2023-07-24T13:37:37;19.70;99.90
9219;DHT22;4644;48.858;9.184;2023-07-24T13:40:07;19.80;99.90
9219;DHT22;4644;48.858;9.184;2023-07-24T13:42:34;19.70;99.90
9219;DHT22;4644;48.858;9.184;2023-07-24T13:45:01;19.90;99.90
9219;DHT22;4644;48.858;9.184;2023-07-24T13:47:28;20.00;99.90
9219;DHT22;4644;48.858;9.184;2023-07-24T13:49:55;20.00;99.90
9219;DHT22;4644;48.858;9.184;2023-07-24T13:52:22;20.10;99.90
9219;DHT22;4644;48.858;9.184;2023-07-24T13:54:49;20.10;99.90
9219;DHT22;4644;48.858;9.184;2023-07-24T13:57:17;20.20;99.90
9219;DHT22;4644;48.858;9.184;2023-07-24T13:59:44;20.30;99.90
9219;DHT22;4644;48.858;9.184;2023-07-24T14:02:11;20.60;99.90
9219;DHT22;4644;48.858;9.184;2023-07-24T14:04:38;20.80;99.90
9219;DHT22;4644;48.858;9.184;2023-07-24T14:07:05;21.20;99.90
9219;DHT22;4644;48.858;9.184;2023-07-24T14:09:33;21.50;99.90
9219;DHT22;4644;48.858;9.184;2023-07-24T14:12:00;21.80;99.90
9219;DHT22;4644;48.858;9.184;2023-07-24T14:14:29;22.00;99.90
9219;DHT22;4644;48.858;9.184;2023-07-24T14:16:56;22.10;99.90
9219;DHT22;4644;48.858;9.184;2023-07-24T14:19:23;22.10;99.90
9219;DHT22;4644;48.858;9.184;2023-07-24T14:21:51;22.00;99.90
9219;DHT22;4644;48.858;9.184;2023-07-24T14:24:21;21.90;99.90
9219;DHT22;4644;48.858;9.184;2023-07-24T14:26:48;21.90;99.90
9219;DHT22;4644;48.858;9.184;2023-07-24T14:29:15;22.00;99.90
9219;DHT22;4644;48.858;9.184;2023-07-24T14:31:45;22.10;99.90
9219;DHT22;4644;48.858;9.184;2023-07-24T14:34:12;22.20;99.90
9219;DHT22;4644;48.858;9.184;2023-07-24T14:36:39;22.30;99.90
9219;DHT22;4644;48.858;9.184;2023-07-24T14:39:06;22.50;99.90
9219;DHT22;4644;48.858;9.184;2023-07-24T14:41:33;22.80;99.90
9219;DHT22;4644;48.858;9.184;2023-07-24T14:44:00;23.00;99.90
9219;DHT22;4644;48.858;9.184;2023-07-24T14:46:27;23.10;99.90
9219;DHT22;4644;48.858;9.184;2023-07-24T14:48:55;23.30;99.90
9219;DHT22;4644;48.858;9.184;2023-07-24T14:51:23;23.30;99.90
9219;DHT22;4644;48.858;9.184;2023-07-24T14:53:51;23.40;99.90
9219;DHT22;4644;48.858;9.184;2023-07-24T14:56:19;23.60;99.90
9219;DHT22;4644;48.858;9.184;2023-07-24T14:58:46;23.90;99.90
9219;DHT22;4644;48.858;9.184;2023-07-24T15:01:13;23.90;99.90
9219;DHT22;4644;48.858;9.184;2023-07-24T15:03:40;23.90;99.90
9219;DHT22;4644;48.858;9.184;2023-07-24T15:06:09;24.00;99.90
9219;DHT22;4644;48.858;9.184;2023-07-24T15:08:36;24.10;99.90
9219;DHT22;4644;48.858;9.184;2023-07-24T15:11:03;24.10;99.90
9219;DHT22;4644;48.858;9.184;2023-07-24T15:13:30;24.20;99.90
9219;DHT22;4644;48.858;9.184;2023-07-24T15:15:57;24.30;99.90
9219;DHT22;4644;48.858;9.184;2023-07-24T15:18:24;24.20;99.90
9219;DHT22;4644;48.858;9.184;2023-07-24T15:20:51;24.00;99.90
9219;DHT22;4644;48.858;9.184;2023-07-24T15:23:21;23.90;99.90
9219;DHT22;4644;48.858;9.184;2023-07-24T15:25:48;23.70;99.90
9219;DHT22;4644;48.858;9.184;2023-07-24T15:28:15;23.60;99.90
9219;DHT22;4644;48.858;9.184;2023-07-24T15:30:42;23.50;99.90
9219;DHT22;4644;48.858;9.184;2023-07-24T15:33:10;23.30;99.90
9219;DHT22;4644;48.858;9.184;2023-07-24T15:35:38;23.20;99.90
9219;DHT22;4644;48.858;9.184;2023-07-24T15:38:05;23.10;99.90
9219;DHT22;4644;48.858;9.184;2023-07-24T15:40:33;23.00;99.90
9219;DHT22;4644;48.858;9.184;2023-07-24T15:43:00;22.90;99.90
9219;DHT22;4644;48.858;9.184;2023-07-24T15:45:27;22.80;99.90
9219;DHT22;4644;48.858;9.184;2023-07-24T15:47:54;22.80;99.90
9219;DHT22;4644;48.858;9.184;2023-07-24T15:50:21;22.80;99.90
9219;DHT22;4644;48.858;9.184;2023-07-24T15:52:48;22.80;99.90
9219;DHT22;4644;48.858;9.184;2023-07-24T15:55:15;22.80;99.90
9219;DHT22;4644;48.858;9.184;2023-07-24T15:57:44;22.70;99.90
9219;DHT22;4644;48.858;9.184;2023-07-24T16:00:11;22.80;99.90
9219;DHT22;4644;48.858;9.184;2023-07-24T16:02:39;22.70;99.90
9219;DHT22;4644;48.858;9.184;2023-07-24T16:05:16;22.70;99.90